createdAt,value
2018-04-24T00:00:16.246Z,21.70
2018-04-24T00:02:47.237Z,20.30
2018-04-24T00:05:16.637Z,20.90
2018-04-24T00:07:46.027Z,20.50
2018-04-24T00:10:16.838Z,20.37
2018-04-24T00:12:47.120Z,20.30
2018-04-24T00:15:16.839Z,21.10
2018-04-24T00:17:46.565Z,19.87
2018-04-24T00:20:16.373Z,17.63
2018-04-24T00:22:46.195Z,20.10
2018-04-24T00:25:16.408Z,18.57
2018-04-24T00:27:46.330Z,18.40
2018-04-24T00:30:15.869Z,19.10
2018-04-24T00:32:45.811Z,18.80
2018-04-24T00:35:15.422Z,18.93
2018-04-24T00:37:45.219Z,18.03
2018-04-24T00:40:16.901Z,18.73
2018-04-24T00:42:47.501Z,17.67
2018-04-24T00:45:18.200Z,16.90
2018-04-24T00:47:48.214Z,17.63
2018-04-24T00:50:18.376Z,18.10
2018-04-24T00:52:47.970Z,17.50
2018-04-24T00:55:18.836Z,16.73
2018-04-24T00:57:48.496Z,18.83
2018-04-24T01:00:18.599Z,17.10
2018-04-24T01:02:48.975Z,17.37
2018-04-24T01:05:18.629Z,17.27
2018-04-24T01:07:51.798Z,16.63
2018-04-24T01:10:21.827Z,16.80
2018-04-24T01:12:51.720Z,16.27
2018-04-24T01:15:21.739Z,17.50
2018-04-24T01:17:52.326Z,16.10
2018-04-24T01:20:22.177Z,16.33
2018-04-24T01:22:52.747Z,16.90
2018-04-24T01:25:23.354Z,17.10
2018-04-24T01:27:53.314Z,15.50
2018-04-24T01:30:24.608Z,15.60
2018-04-24T01:32:55.343Z,17.03
2018-04-24T01:35:25.682Z,15.50
2018-04-24T01:37:55.614Z,15.70
2018-04-24T01:40:25.204Z,15.90
2018-04-24T01:42:55.579Z,16.27
2018-04-24T01:45:25.501Z,13.87
2018-04-24T01:47:56.343Z,16.70
2018-04-24T01:50:27.265Z,16.40
2018-04-24T01:52:57.554Z,15.07
2018-04-24T01:55:28.026Z,14.10
2018-04-24T01:57:58.593Z,15.40
2018-04-24T02:00:28.364Z,14.40
2018-04-24T02:02:59.326Z,15.13
2018-04-24T02:05:31.016Z,15.20
2018-04-24T02:08:02.459Z,14.73
2018-04-24T02:10:32.096Z,14.33
2018-04-24T02:13:03.420Z,13.77
2018-04-24T02:15:33.678Z,13.60
2018-04-24T02:18:04.577Z,13.73
2018-04-24T02:20:34.057Z,14.20
2018-04-24T02:23:03.971Z,15.10
2018-04-24T02:25:33.534Z,15.90
2018-04-24T02:28:03.536Z,15.47
2018-04-24T02:30:33.547Z,15.93
2018-04-24T02:33:05.349Z,14.93
2018-04-24T02:35:34.899Z,15.80
2018-04-24T02:38:05.112Z,15.37
2018-04-24T02:40:34.611Z,14.43
2018-04-24T02:43:05.401Z,15.07
2018-04-24T02:45:39.123Z,14.40
2018-04-24T02:48:10.343Z,15.50
2018-04-24T02:50:40.354Z,15.13
2018-04-24T02:53:10.538Z,16.07
2018-04-24T02:55:41.355Z,15.23
2018-04-24T02:58:12.494Z,14.63
2018-04-24T03:00:42.117Z,15.47
2018-04-24T03:03:12.051Z,15.17
2018-04-24T03:05:41.423Z,14.67
2018-04-24T03:08:11.656Z,16.23
2018-04-24T03:10:54.043Z,14.60
2018-04-24T03:13:23.834Z,16.37
2018-04-24T03:15:53.280Z,15.10
2018-04-24T03:18:24.212Z,14.70
2018-04-24T03:20:53.808Z,15.57
2018-04-24T03:23:23.322Z,15.20
2018-04-24T03:25:53.320Z,15.13
2018-04-24T03:28:22.953Z,15.67
2018-04-24T03:30:52.822Z,17.40
2018-04-24T03:33:23.139Z,16.57
2018-04-24T03:35:53.786Z,15.83
2018-04-24T03:38:24.492Z,16.23
2018-04-24T03:40:54.409Z,16.27
2018-04-24T03:43:23.811Z,14.77
2018-04-24T03:45:53.549Z,14.40
2018-04-24T03:48:22.952Z,14.40
2018-04-24T03:50:52.572Z,15.30
2018-04-24T03:53:22.252Z,14.20
2018-04-24T03:55:51.815Z,13.67
2018-04-24T03:58:22.294Z,14.40
2018-04-24T04:00:52.146Z,13.70
2018-04-24T04:03:21.836Z,12.97
2018-04-24T04:05:52.321Z,13.33
2018-04-24T04:08:21.791Z,13.00
2018-04-24T04:10:51.414Z,12.77
2018-04-24T04:13:21.319Z,13.13
2018-04-24T04:15:51.514Z,11.40
2018-04-24T04:20:34.511Z,11.70
2018-04-24T04:25:14.964Z,11.70
2018-04-24T04:27:45.089Z,13.10
2018-04-24T04:30:15.027Z,12.63
2018-04-24T04:32:45.083Z,11.87
2018-04-24T04:35:15.534Z,12.33
2018-04-24T04:37:45.350Z,11.93
2018-04-24T04:40:15.561Z,11.30
2018-04-24T04:42:54.874Z,11.27
2018-04-24T04:45:25.400Z,12.10
2018-04-24T04:47:56.028Z,10.60
2018-04-24T04:50:26.275Z,10.70
2018-04-24T04:52:55.872Z,11.40
2018-04-24T04:55:25.743Z,11.40
2018-04-24T04:57:59.660Z,11.13
2018-04-24T05:00:31.379Z,10.23
2018-04-24T05:03:01.534Z,11.67
2018-04-24T05:05:31.518Z,10.50
2018-04-24T05:08:01.986Z,11.60
2018-04-24T05:10:31.644Z,10.90
2018-04-24T05:13:01.018Z,10.00
2018-04-24T05:15:31.023Z,10.33
2018-04-24T05:18:02.721Z,10.57
2018-04-24T05:20:33.371Z,10.27
2018-04-24T05:23:04.060Z,10.00
2018-04-24T05:25:33.808Z,10.30
2018-04-24T05:28:04.495Z,10.70
2018-04-24T05:30:34.231Z,9.53
2018-04-24T05:33:04.014Z,10.17
2018-04-24T05:35:38.587Z,10.67
2018-04-24T05:38:08.615Z,10.53
2018-04-24T05:40:38.179Z,10.67
2018-04-24T05:43:09.800Z,10.13
2018-04-24T05:45:39.457Z,10.47
2018-04-24T05:48:09.680Z,10.80
2018-04-24T05:50:39.523Z,9.30
2018-04-24T05:53:10.016Z,9.53
2018-04-24T05:55:39.426Z,9.37
2018-04-24T05:58:09.820Z,9.60
2018-04-24T06:00:39.368Z,8.80
2018-04-24T06:03:10.074Z,9.20
2018-04-24T06:05:39.894Z,8.90
2018-04-24T06:08:09.570Z,8.40
2018-04-24T06:10:39.242Z,8.83
2018-04-24T06:13:08.942Z,9.47
2018-04-24T06:15:39.238Z,8.70
2018-04-24T06:18:11.143Z,8.00
2018-04-24T06:20:40.610Z,9.13
2018-04-24T06:23:10.970Z,8.07
2018-04-24T06:25:40.708Z,8.53
2018-04-24T06:28:10.168Z,7.33
2018-04-24T06:30:41.404Z,7.50
2018-04-24T06:33:11.733Z,7.53
2018-04-24T06:35:41.414Z,6.50
2018-04-24T06:38:11.623Z,6.90
2018-04-24T06:40:41.672Z,5.90
2018-04-24T06:43:11.829Z,6.23
2018-04-24T06:45:41.557Z,6.47
2018-04-24T06:48:11.231Z,6.63
2018-04-24T06:50:40.704Z,5.90
2018-04-24T06:53:10.807Z,6.20
2018-04-24T06:55:40.544Z,6.40
2018-04-24T06:58:10.090Z,6.10
2018-04-24T07:00:39.937Z,5.80
2018-04-24T07:03:09.757Z,5.97
2018-04-24T07:05:40.285Z,5.67
2018-04-24T07:08:10.909Z,5.87
2018-04-24T07:10:41.418Z,6.03
2018-04-24T07:13:11.843Z,5.60
2018-04-24T07:15:41.761Z,4.77
2018-04-24T07:18:12.213Z,3.90
2018-04-24T07:20:42.424Z,3.93
2018-04-24T07:23:17.185Z,4.00
2018-04-24T07:25:48.168Z,3.57
2018-04-24T07:28:19.691Z,3.93
2018-04-24T07:30:50.061Z,3.90
2018-04-24T07:33:20.652Z,3.20
2018-04-24T07:35:50.408Z,3.23
2018-04-24T07:38:22.467Z,3.23
2018-04-24T07:40:52.010Z,3.40
2018-04-24T07:43:23.274Z,2.90
2018-04-24T07:45:52.814Z,2.60
2018-04-24T07:48:24.929Z,2.70
2018-04-24T07:50:55.175Z,2.70
2018-04-24T07:53:26.390Z,2.70
2018-04-24T07:55:56.779Z,2.57
2018-04-24T07:58:34.484Z,2.50
2018-04-24T08:01:05.192Z,2.83
2018-04-24T08:03:38.729Z,2.87
2018-04-24T08:06:08.506Z,2.23
2018-04-24T08:08:38.708Z,2.60
2018-04-24T08:11:08.896Z,2.40
2018-04-24T08:13:38.965Z,2.03
2018-04-24T08:16:10.247Z,2.57
2018-04-24T08:18:41.395Z,2.30
2018-04-24T08:21:11.883Z,2.87
2018-04-24T08:23:41.772Z,2.47
2018-04-24T08:26:11.720Z,2.40
2018-04-24T08:28:41.941Z,2.30
2018-04-24T08:31:11.538Z,2.00
2018-04-24T08:33:42.075Z,2.00
2018-04-24T08:36:12.029Z,2.00
2018-04-24T08:38:43.203Z,1.90
2018-04-24T08:41:15.312Z,2.07
2018-04-24T08:43:46.706Z,1.93
2018-04-24T08:46:19.047Z,1.90
2018-04-24T08:48:50.213Z,1.50
2018-04-24T08:51:21.541Z,1.63
2018-04-24T08:53:52.232Z,2.10
2018-04-24T08:56:23.252Z,1.37
2018-04-24T08:58:54.210Z,2.20
2018-04-24T09:01:25.708Z,2.00
2018-04-24T09:03:57.318Z,1.47
2018-04-24T09:06:27.143Z,1.57
2018-04-24T09:08:57.210Z,1.50
2018-04-24T09:11:26.980Z,1.70
2018-04-24T09:13:56.743Z,1.77
2018-04-24T09:16:28.865Z,1.47
2018-04-24T09:19:01.217Z,1.57
2018-04-24T09:21:31.228Z,1.40
2018-04-24T09:24:05.052Z,1.40
2018-04-24T09:26:39.954Z,1.80
2018-04-24T09:29:11.965Z,1.60
2018-04-24T09:31:44.504Z,1.50
2018-04-24T09:34:14.789Z,1.60
2018-04-24T09:36:45.664Z,1.43
2018-04-24T09:39:16.023Z,1.63
2018-04-24T09:41:46.960Z,1.40
2018-04-24T09:44:19.023Z,1.20
2018-04-24T09:46:58.864Z,1.80
2018-04-24T09:49:29.737Z,1.40
2018-04-24T09:52:01.286Z,1.60
2018-04-24T09:54:34.615Z,2.20
2018-04-24T09:57:07.197Z,1.70
2018-04-24T09:59:37.147Z,1.70
2018-04-24T10:02:08.930Z,1.40
2018-04-24T10:04:39.466Z,1.73
2018-04-24T10:07:11.889Z,1.47
2018-04-24T10:09:44.027Z,1.73
2018-04-24T10:12:13.824Z,1.60
2018-04-24T10:14:44.156Z,2.10
2018-04-24T10:17:15.162Z,1.87
2018-04-24T10:19:48.542Z,1.40
2018-04-24T10:22:18.694Z,1.30
2018-04-24T10:24:48.599Z,1.53
2018-04-24T10:27:18.122Z,1.63
2018-04-24T10:29:47.763Z,1.40
2018-04-24T10:32:20.800Z,1.60
2018-04-24T10:34:50.259Z,1.57
2018-04-24T10:37:21.694Z,1.63
2018-04-24T10:39:52.399Z,1.57
2018-04-24T10:42:22.520Z,1.70
2018-04-24T10:44:54.080Z,1.27
2018-04-24T10:47:24.309Z,1.50
2018-04-24T10:49:54.715Z,1.37
2018-04-24T10:52:24.911Z,1.07
2018-04-24T10:54:55.670Z,1.97
2018-04-24T10:57:25.409Z,1.50
2018-04-24T10:59:55.090Z,1.77
2018-04-24T11:02:24.867Z,1.50
2018-04-24T11:04:56.735Z,1.57
2018-04-24T11:07:26.287Z,1.40
2018-04-24T11:09:55.740Z,1.20
2018-04-24T11:12:25.203Z,1.33
2018-04-24T11:14:55.200Z,1.20
2018-04-24T11:17:28.888Z,1.50
2018-04-24T11:19:58.292Z,1.50
2018-04-24T11:22:27.748Z,2.00
2018-04-24T11:24:57.889Z,1.43
2018-04-24T11:27:27.784Z,1.60
2018-04-24T11:30:00.802Z,1.43
2018-04-24T11:32:30.898Z,1.97
2018-04-24T11:35:00.649Z,1.67
2018-04-24T11:37:38.173Z,1.60
2018-04-24T11:40:13.059Z,1.37
2018-04-24T11:42:42.502Z,1.10
2018-04-24T11:45:12.414Z,1.23
2018-04-24T11:47:42.479Z,1.50
2018-04-24T11:50:16.847Z,2.00
2018-04-24T11:52:50.757Z,1.43
2018-04-24T11:55:20.481Z,1.63
2018-04-24T11:57:50.244Z,1.30
2018-04-24T12:00:20.273Z,1.40
2018-04-24T12:02:50.081Z,1.50
2018-04-24T12:05:21.136Z,1.73
2018-04-24T12:07:50.663Z,1.20
2018-04-24T12:10:22.227Z,1.10
2018-04-24T12:13:02.388Z,1.40
2018-04-24T12:15:32.459Z,1.30
2018-04-24T12:18:02.387Z,1.20
2018-04-24T12:20:33.042Z,1.20
2018-04-24T12:23:02.839Z,1.47
2018-04-24T12:25:33.186Z,1.30
2018-04-24T12:28:03.755Z,1.53
2018-04-24T12:30:38.496Z,1.53
2018-04-24T12:33:09.382Z,1.70
2018-04-24T12:35:41.313Z,1.17
2018-04-24T12:38:14.799Z,1.47
2018-04-24T12:40:49.566Z,1.60
2018-04-24T12:43:20.422Z,1.40
2018-04-24T12:45:50.223Z,1.37
2018-04-24T12:48:24.732Z,1.43
2018-04-24T12:50:55.038Z,1.30
2018-04-24T12:53:27.002Z,1.50
2018-04-24T12:56:00.979Z,1.37
2018-04-24T12:58:30.838Z,1.20
2018-04-24T13:01:00.905Z,1.73
2018-04-24T13:03:30.617Z,1.10
2018-04-24T13:06:00.469Z,1.77
2018-04-24T13:08:39.285Z,1.63
2018-04-24T13:11:09.176Z,1.53
2018-04-24T13:13:39.140Z,1.40
2018-04-24T13:16:15.763Z,1.63
2018-04-24T13:18:48.100Z,1.33
2018-04-24T13:21:18.431Z,1.97
2018-04-24T13:23:48.888Z,1.53
2018-04-24T13:26:18.449Z,1.77
2018-04-24T13:28:49.584Z,1.80
2018-04-24T13:31:19.732Z,1.77
2018-04-24T13:33:49.294Z,1.80
2018-04-24T13:36:19.231Z,1.50
2018-04-24T13:38:49.607Z,1.53
2018-04-24T13:41:19.771Z,1.73
2018-04-24T13:43:49.277Z,1.60
2018-04-24T13:46:18.821Z,2.13
2018-04-24T13:48:48.331Z,1.90
2018-04-24T13:51:18.015Z,1.50
2018-04-24T13:53:48.370Z,2.13
2018-04-24T13:56:18.167Z,1.83
2018-04-24T13:58:47.596Z,1.83
2018-04-24T14:01:17.535Z,2.00
